Copper City, Michigan
Current Conditions -  °F | °C
As of 3:53 PM on Saturday 25 Oct 2014 (Local Time) from KCMX Reporting Station
Clear Clear  
Wind Chill: 53°   Ceiling: Unl
Heat Index: 53°   Visibility: 10mi
Dew Point: 33°   Wind: 29mph
Humidity: 47%   Direction: 270°W
Pressure: 29.73"   Gusts: 39mph
Location:  47.28°N, 88.39°W
Report Text: KCMX 251953Z AUTO 27025G34KT 10SM CLR 12/01 A2973 RMK AO2 PK WND 27037/1911 SLP071 T01170006
Loading
Personal Weather Stations






























Interactive Weather Map
Tropical Storm Tracking
New forecast layout! Learn more

10-Day Weather Forecast

Advertisements
Track Severe Weather on mobile